createdAt,value
2023-04-23T00:00:56.033Z,11.30
2023-04-23T00:02:59.802Z,11.30
2023-04-23T00:07:20.481Z,11.30
2023-04-23T00:09:23.556Z,11.20
2023-04-23T00:11:26.771Z,11.20
2023-04-23T00:13:30.147Z,11.20
2023-04-23T00:15:33.155Z,11.10
2023-04-23T00:17:35.707Z,11.10
2023-04-23T00:19:38.257Z,11.00
2023-04-23T00:21:40.897Z,11.10
2023-04-23T00:23:43.410Z,11.10
2023-04-23T00:25:45.919Z,11.00
2023-04-23T00:27:48.429Z,11.00
2023-04-23T00:30:09.126Z,11.00
2023-04-23T00:32:16.144Z,10.90
2023-04-23T00:34:21.219Z,10.90
2023-04-23T00:36:25.457Z,10.90
2023-04-23T00:38:28.071Z,10.90
2023-04-23T00:40:30.590Z,10.90
2023-04-23T00:42:33.155Z,10.90
2023-04-23T00:44:36.664Z,10.90
2023-04-23T00:46:39.264Z,10.90
2023-04-23T00:48:41.862Z,10.90
2023-04-23T00:50:44.394Z,10.80
2023-04-23T00:52:46.959Z,10.80
2023-04-23T00:54:49.425Z,10.80
2023-04-23T00:56:52.025Z,10.70
2023-04-23T00:58:55.395Z,10.70
2023-04-23T01:00:58.165Z,10.70
2023-04-23T01:03:01.235Z,10.60
2023-04-23T01:05:04.808Z,10.60
2023-04-23T01:07:07.529Z,10.60
2023-04-23T01:09:10.359Z,10.60
2023-04-23T01:11:15.011Z,10.60
2023-04-23T01:13:17.716Z,10.60
2023-04-23T01:15:20.343Z,10.60
2023-04-23T01:17:23.098Z,10.60
2023-04-23T01:19:25.874Z,10.50
2023-04-23T01:21:28.670Z,10.50
2023-04-23T01:23:31.275Z,10.50
2023-04-23T01:25:34.168Z,10.50
2023-04-23T01:27:36.689Z,10.50
2023-04-23T01:29:39.583Z,10.50
2023-04-23T01:31:42.865Z,10.50
2023-04-23T01:33:46.071Z,10.50
2023-04-23T01:35:49.076Z,10.40
2023-04-23T01:37:51.856Z,10.40
2023-04-23T01:39:54.443Z,10.40
2023-04-23T01:41:57.766Z,10.50
2023-04-23T01:44:00.391Z,10.40
2023-04-23T01:46:03.132Z,10.50
2023-04-23T01:48:06.002Z,10.40
2023-04-23T01:50:09.480Z,10.40
2023-04-23T01:52:11.932Z,10.40
2023-04-23T01:54:14.511Z,10.40
2023-04-23T01:56:19.121Z,10.40
2023-04-23T01:58:22.812Z,10.40
2023-04-23T02:00:25.484Z,10.40
2023-04-23T02:02:28.184Z,10.50
2023-04-23T02:04:30.975Z,10.40
2023-04-23T02:06:33.557Z,10.40
2023-04-23T02:08:36.453Z,10.40
2023-04-23T02:10:39.251Z,10.40
2023-04-23T02:12:42.058Z,10.40
2023-04-23T02:14:45.159Z,10.40
2023-04-23T02:16:47.909Z,10.40
2023-04-23T02:18:51.232Z,10.40
2023-04-23T02:20:54.042Z,10.50
2023-04-23T02:22:56.549Z,10.50
2023-04-23T02:24:59.241Z,10.50
2023-04-23T02:27:01.894Z,10.40
2023-04-23T02:29:05.207Z,10.40
2023-04-23T02:31:07.713Z,10.40
2023-04-23T02:33:10.319Z,10.40
2023-04-23T02:35:12.923Z,10.40
2023-04-23T02:37:16.294Z,10.40
2023-04-23T02:39:18.907Z,10.40
2023-04-23T02:41:21.700Z,10.40
2023-04-23T02:43:24.214Z,10.30
2023-04-23T02:45:26.689Z,10.30
2023-04-23T02:47:30.735Z,10.30
2023-04-23T02:49:33.238Z,10.20
2023-04-23T02:51:35.857Z,10.10
2023-04-23T02:53:38.448Z,10.20
2023-04-23T02:55:41.053Z,10.30
2023-04-23T02:57:43.924Z,10.30
2023-04-23T02:59:46.548Z,10.30
2023-04-23T03:01:49.704Z,10.30
2023-04-23T03:03:52.536Z,10.20
2023-04-23T03:05:55.501Z,10.20
2023-04-23T03:07:58.054Z,10.10
2023-04-23T03:10:00.649Z,10.10
2023-04-23T03:12:03.562Z,10.10
2023-04-23T03:14:06.155Z,10.00
2023-04-23T03:16:09.359Z,9.90
2023-04-23T03:18:12.077Z,9.90
2023-04-23T03:20:14.879Z,9.90
2023-04-23T03:22:17.453Z,9.90
2023-04-23T03:24:20.051Z,9.90
2023-04-23T03:26:22.746Z,9.90
2023-04-23T03:28:25.345Z,9.90
2023-04-23T03:30:28.284Z,9.90
2023-04-23T03:32:30.884Z,9.80
2023-04-23T03:34:33.927Z,9.70
2023-04-23T03:36:37.247Z,9.60
2023-04-23T03:38:39.936Z,9.50
2023-04-23T03:40:42.732Z,9.50
2023-04-23T03:42:45.752Z,9.50
2023-04-23T03:44:48.643Z,9.30
2023-04-23T03:46:52.100Z,9.20
2023-04-23T03:48:55.660Z,9.30
2023-04-23T03:51:00.065Z,9.30
2023-04-23T03:53:04.470Z,9.40
2023-04-23T03:55:09.612Z,9.40
2023-04-23T03:57:14.140Z,9.40
2023-04-23T03:59:18.555Z,9.40
2023-04-23T04:01:21.849Z,9.30
2023-04-23T04:03:25.445Z,9.30
2023-04-23T04:05:28.120Z,9.30
2023-04-23T04:07:31.195Z,9.30
2023-04-23T04:09:33.743Z,9.30
2023-04-23T04:11:37.332Z,9.20
2023-04-23T04:13:40.138Z,9.20
2023-04-23T04:15:42.752Z,9.20
2023-04-23T04:17:45.502Z,9.20
2023-04-23T04:19:47.950Z,9.10
2023-04-23T04:21:50.946Z,9.10
2023-04-23T04:23:54.043Z,9.00
2023-04-23T04:25:57.097Z,9.00
2023-04-23T04:27:59.964Z,9.00
2023-04-23T04:30:02.605Z,9.00
2023-04-23T04:32:05.181Z,9.00
2023-04-23T04:34:08.435Z,8.90
2023-04-23T04:36:11.147Z,8.80
2023-04-23T04:38:13.619Z,8.70
2023-04-23T04:40:16.166Z,8.70
2023-04-23T04:42:18.664Z,8.80
2023-04-23T04:44:21.865Z,8.80
2023-04-23T04:46:25.890Z,8.80
2023-04-23T04:48:28.451Z,8.80
2023-04-23T04:50:30.887Z,8.90
2023-04-23T04:52:33.400Z,9.00
2023-04-23T04:54:35.877Z,9.00
2023-04-23T04:56:38.336Z,9.00
2023-04-23T04:58:40.940Z,9.00
2023-04-23T05:00:43.944Z,9.00
2023-04-23T05:02:47.241Z,9.10
2023-04-23T05:04:49.849Z,9.10
2023-04-23T05:06:52.424Z,9.10
2023-04-23T05:08:54.921Z,9.10
2023-04-23T05:10:57.392Z,9.10
2023-04-23T05:13:00.056Z,9.10
2023-04-23T05:15:03.101Z,9.20
2023-04-23T05:17:05.616Z,9.10
2023-04-23T05:21:24.080Z,9.10
2023-04-23T05:23:26.727Z,9.10
2023-04-23T05:25:30.153Z,9.10
2023-04-23T05:27:32.738Z,9.20
2023-04-23T05:29:35.203Z,9.20
2023-04-23T05:31:37.722Z,9.30
2023-04-23T05:33:49.339Z,9.40
2023-04-23T05:35:44.694Z,9.40
2023-04-23T05:37:47.295Z,9.50
2023-04-23T05:39:49.775Z,9.40
2023-04-23T05:41:52.272Z,9.40
2023-04-23T05:43:54.785Z,9.50
2023-04-23T05:45:57.286Z,9.50
2023-04-23T05:47:59.865Z,9.60
2023-04-23T05:50:02.571Z,9.70
2023-04-23T05:52:05.162Z,9.80
2023-04-23T05:54:07.632Z,9.90
2023-04-23T05:56:10.359Z,9.90
2023-04-23T05:58:12.846Z,10.00
2023-04-23T06:00:16.394Z,10.00
2023-04-23T06:02:18.957Z,10.20
2023-04-23T06:04:21.734Z,10.10
2023-04-23T06:06:24.481Z,10.20
2023-04-23T06:08:27.115Z,10.20
2023-04-23T06:10:29.602Z,10.20
2023-04-23T06:12:32.192Z,10.20
2023-04-23T06:14:34.652Z,10.30
2023-04-23T06:16:37.170Z,10.50
2023-04-23T06:18:39.623Z,10.60
2023-04-23T06:20:42.108Z,10.70
2023-04-23T06:22:45.095Z,10.80
2023-04-23T06:24:47.566Z,11.00
2023-04-23T06:26:50.016Z,11.20
2023-04-23T06:28:53.037Z,11.30
2023-04-23T06:30:57.556Z,11.50
2023-04-23T06:33:01.464Z,11.60
2023-04-23T06:35:04.574Z,11.60
2023-04-23T06:37:08.091Z,11.70
2023-04-23T06:39:10.811Z,11.80
2023-04-23T06:41:13.559Z,11.90
2023-04-23T06:43:16.025Z,12.20
2023-04-23T06:45:20.551Z,12.30
2023-04-23T06:47:23.024Z,12.40
2023-04-23T06:49:25.502Z,12.50
2023-04-23T06:51:28.115Z,12.60
2023-04-23T06:53:30.576Z,12.70
2023-04-23T06:55:33.064Z,12.90
2023-04-23T06:57:35.942Z,13.00
2023-04-23T06:59:38.405Z,13.10
2023-04-23T07:01:41.151Z,13.20
2023-04-23T07:03:45.864Z,13.30
2023-04-23T07:05:48.501Z,13.50
2023-04-23T07:07:50.983Z,13.60
2023-04-23T07:09:53.635Z,13.60
2023-04-23T07:13:59.106Z,13.80
2023-04-23T07:16:01.625Z,14.00
2023-04-23T07:18:04.467Z,14.00
2023-04-23T07:20:08.413Z,14.10
2023-04-23T07:22:10.932Z,14.20
2023-04-23T07:24:13.409Z,14.20
2023-04-23T07:26:17.108Z,14.30
2023-04-23T07:28:19.592Z,14.40
2023-04-23T07:30:23.225Z,14.50
2023-04-23T07:32:27.443Z,14.60
2023-04-23T07:34:30.055Z,14.70
2023-04-23T07:36:33.019Z,14.90
2023-04-23T07:38:35.529Z,15.00
2023-04-23T07:40:38.158Z,14.90
2023-04-23T07:42:40.763Z,14.90
2023-04-23T07:44:43.230Z,14.80
2023-04-23T07:46:45.757Z,14.80
2023-04-23T07:48:48.229Z,14.70
2023-04-23T07:50:50.779Z,14.40
2023-04-23T07:52:53.291Z,14.50
2023-04-23T07:54:55.850Z,14.50
2023-04-23T07:56:58.404Z,14.50
2023-04-23T07:59:00.923Z,14.60
2023-04-23T08:01:03.472Z,14.60
2023-04-23T08:03:06.095Z,14.50
2023-04-23T08:05:09.851Z,14.50
2023-04-23T08:07:13.119Z,14.50
2023-04-23T08:09:15.664Z,14.60
2023-04-23T08:11:18.493Z,14.80
2023-04-23T08:13:21.000Z,14.90
2023-04-23T08:15:23.686Z,15.00
2023-04-23T08:17:26.240Z,15.20
2023-04-23T08:19:30.627Z,15.20
2023-04-23T08:21:33.244Z,15.30
2023-04-23T08:23:35.823Z,15.30
2023-04-23T08:25:39.302Z,15.50
2023-04-23T08:27:42.185Z,15.60
2023-04-23T08:29:44.661Z,15.50
2023-04-23T08:31:47.280Z,15.70
2023-04-23T08:33:49.739Z,15.70
2023-04-23T08:35:52.243Z,15.80
2023-04-23T08:37:55.166Z,15.80
2023-04-23T08:39:57.640Z,16.00
2023-04-23T08:42:01.936Z,16.40
2023-04-23T08:44:06.728Z,16.50
2023-04-23T08:46:11.148Z,16.50
2023-04-23T08:48:14.028Z,16.80
2023-04-23T08:50:18.057Z,17.00
2023-04-23T08:52:22.924Z,17.00
2023-04-23T08:54:26.698Z,17.30
2023-04-23T08:56:30.007Z,17.60
2023-04-23T08:58:32.704Z,17.20
2023-04-23T09:00:35.239Z,16.70
2023-04-23T09:02:39.710Z,16.80
2023-04-23T09:04:42.168Z,17.20
2023-04-23T09:06:44.726Z,17.60
2023-04-23T09:08:47.297Z,17.40
2023-04-23T09:10:51.666Z,18.00
2023-04-23T09:12:54.205Z,17.30
2023-04-23T09:14:56.869Z,17.60
2023-04-23T09:16:59.436Z,17.70
2023-04-23T09:19:02.429Z,17.60
2023-04-23T09:21:04.950Z,17.80
2023-04-23T09:23:07.926Z,17.90
2023-04-23T09:25:11.054Z,18.30
2023-04-23T09:27:13.676Z,18.30
2023-04-23T09:29:18.349Z,18.60
2023-04-23T09:31:22.262Z,18.70
2023-04-23T09:33:24.866Z,19.10
2023-04-23T09:35:27.550Z,19.10
2023-04-23T09:37:30.577Z,19.20
2023-04-23T09:39:33.845Z,19.40
2023-04-23T09:41:36.740Z,18.90
2023-04-23T09:43:41.813Z,19.00
2023-04-23T09:45:50.520Z,19.10
2023-04-23T09:47:53.655Z,18.40
2023-04-23T09:49:56.512Z,17.70
2023-04-23T09:52:00.820Z,17.50
2023-04-23T09:54:03.514Z,17.50
2023-04-23T09:56:06.890Z,18.00
2023-04-23T09:58:12.104Z,18.30
2023-04-23T10:00:16.982Z,18.60
2023-04-23T10:02:20.497Z,18.60
2023-04-23T10:04:24.253Z,18.60
2023-04-23T10:08:36.898Z,18.30
2023-04-23T10:10:53.169Z,18.80
2023-04-23T10:12:54.436Z,18.90
2023-04-23T10:14:50.424Z,19.00
2023-04-23T10:16:54.766Z,19.30
2023-04-23T10:18:59.093Z,19.70
2023-04-23T10:21:02.799Z,19.80
2023-04-23T10:23:05.474Z,19.90
2023-04-23T10:25:10.644Z,19.90
2023-04-23T10:27:27.020Z,19.60
2023-04-23T10:29:21.682Z,19.10
2023-04-23T10:31:24.502Z,18.40
2023-04-23T10:33:31.873Z,18.20
2023-04-23T10:35:34.659Z,18.00
2023-04-23T10:37:37.931Z,18.00
2023-04-23T10:39:42.204Z,18.10
2023-04-23T10:41:44.820Z,18.10
2023-04-23T10:43:47.379Z,18.20
2023-04-23T10:45:50.150Z,17.90
2023-04-23T10:47:53.782Z,17.80
2023-04-23T10:49:56.293Z,17.70
2023-04-23T10:52:18.890Z,17.50
2023-04-23T10:54:04.996Z,17.80
2023-04-23T10:56:08.634Z,18.00
2023-04-23T10:58:11.146Z,18.20
2023-04-23T11:00:15.921Z,18.00
2023-04-23T11:02:18.511Z,18.30
2023-04-23T11:04:22.926Z,18.50
2023-04-23T11:06:43.351Z,18.40
2023-04-23T11:08:53.204Z,18.50
2023-04-23T11:10:56.605Z,18.60
2023-04-23T11:13:00.883Z,18.40
2023-04-23T11:15:13.705Z,18.10
2023-04-23T11:17:17.000Z,18.30
2023-04-23T11:19:20.715Z,18.30
2023-04-23T11:21:25.384Z,18.00
2023-04-23T11:23:32.392Z,18.10
2023-04-23T11:25:35.470Z,18.40
2023-04-23T11:27:39.440Z,18.60
2023-04-23T11:29:42.838Z,18.50
2023-04-23T11:32:00.995Z,18.50
2023-04-23T11:33:50.104Z,18.40
2023-04-23T11:35:52.590Z,18.40
2023-04-23T11:37:55.911Z,18.30
2023-04-23T11:40:00.169Z,18.10
2023-04-23T11:42:04.211Z,18.40
2023-04-23T11:44:07.937Z,18.20
2023-04-23T11:46:10.478Z,18.20
2023-04-23T11:48:12.997Z,18.20
2023-04-23T11:50:19.012Z,18.00
2023-04-23T11:52:21.524Z,18.00
2023-04-23T11:54:27.681Z,18.10
2023-04-23T11:56:30.629Z,18.10
2023-04-23T11:58:33.839Z,18.40
2023-04-23T12:00:36.310Z,18.50
2023-04-23T12:02:38.950Z,18.30
2023-04-23T12:04:43.393Z,18.30
2023-04-23T12:06:46.682Z,18.50
2023-04-23T12:08:49.419Z,18.30
2023-04-23T12:10:52.342Z,18.50
2023-04-23T12:12:54.843Z,18.60
2023-04-23T12:15:03.619Z,18.60
2023-04-23T12:17:10.242Z,18.50
2023-04-23T12:19:14.038Z,18.70
2023-04-23T12:21:18.255Z,18.90
2023-04-23T12:23:26.025Z,18.80
2023-04-23T12:25:28.520Z,18.80
2023-04-23T12:27:33.153Z,18.70
2023-04-23T12:29:35.620Z,18.70
2023-04-23T12:31:38.725Z,18.40
2023-04-23T12:33:41.243Z,18.30
2023-04-23T12:35:44.261Z,18.50
2023-04-23T12:37:46.708Z,18.30
2023-04-23T12:39:49.382Z,18.30
2023-04-23T12:41:52.813Z,18.30
2023-04-23T12:43:55.276Z,18.10
2023-04-23T12:45:58.198Z,18.10
2023-04-23T12:48:00.734Z,17.80
2023-04-23T12:50:05.185Z,17.60
2023-04-23T12:52:08.369Z,17.70
2023-04-23T12:54:11.055Z,18.00
2023-04-23T12:56:13.560Z,18.20
2023-04-23T12:58:16.031Z,18.30
2023-04-23T13:00:18.829Z,18.30
2023-04-23T13:02:21.656Z,18.20
2023-04-23T13:06:39.984Z,17.90
2023-04-23T13:08:42.483Z,17.70
2023-04-23T13:10:45.060Z,17.70
2023-04-23T13:12:47.605Z,17.80
2023-04-23T13:14:52.167Z,17.80
2023-04-23T13:16:55.388Z,17.80
2023-04-23T13:19:00.070Z,17.90
2023-04-23T13:21:02.600Z,18.00
2023-04-23T13:23:08.104Z,18.40
2023-04-23T13:25:11.343Z,18.60
2023-04-23T13:27:14.473Z,18.50
2023-04-23T13:29:18.389Z,18.30
2023-04-23T13:31:23.757Z,18.20
2023-04-23T13:33:27.501Z,18.10
2023-04-23T13:35:31.801Z,18.60
2023-04-23T13:37:39.087Z,18.90
2023-04-23T13:39:44.787Z,18.90
2023-04-23T13:41:59.128Z,18.90
2023-04-23T13:43:55.150Z,18.80
2023-04-23T13:46:01.175Z,18.80
2023-04-23T13:48:07.231Z,18.60
2023-04-23T13:50:13.251Z,18.60
2023-04-23T13:52:17.927Z,18.50
2023-04-23T13:54:23.370Z,18.30
2023-04-23T13:56:29.475Z,18.20
2023-04-23T13:58:33.764Z,18.10
2023-04-23T14:00:39.945Z,18.40
2023-04-23T14:02:47.703Z,18.40
2023-04-23T14:04:52.300Z,18.50
2023-04-23T14:06:57.154Z,18.60
2023-04-23T14:09:01.872Z,18.70
2023-04-23T14:11:05.657Z,18.70
2023-04-23T14:13:09.898Z,18.50
2023-04-23T14:15:14.443Z,18.60
2023-04-23T14:17:18.914Z,18.80
2023-04-23T14:19:24.487Z,18.80
2023-04-23T14:21:30.341Z,18.90
2023-04-23T14:23:49.598Z,19.00
2023-04-23T14:25:54.829Z,19.20
2023-04-23T14:28:01.229Z,19.20
2023-04-23T14:30:05.727Z,19.20
2023-04-23T14:32:10.360Z,19.20
2023-04-23T14:34:14.724Z,19.30
2023-04-23T14:36:18.040Z,19.30
2023-04-23T14:38:21.656Z,19.10
2023-04-23T14:40:27.144Z,18.90
2023-04-23T14:42:30.890Z,18.90
2023-04-23T14:44:34.097Z,18.90
2023-04-23T14:46:40.092Z,19.00
2023-04-23T14:48:44.635Z,19.00
2023-04-23T14:50:48.097Z,19.00
2023-04-23T14:52:51.966Z,18.90
2023-04-23T14:54:58.033Z,18.80
2023-04-23T14:57:02.519Z,18.90
2023-04-23T14:59:06.686Z,18.90
2023-04-23T15:01:10.170Z,18.90
2023-04-23T15:03:15.078Z,18.90
2023-04-23T15:05:19.779Z,18.80
2023-04-23T15:07:23.771Z,18.90
2023-04-23T15:09:27.721Z,18.80
2023-04-23T15:11:33.177Z,18.80
2023-04-23T15:13:42.470Z,18.70
2023-04-23T15:15:48.885Z,18.80
2023-04-23T15:17:51.995Z,18.60
2023-04-23T15:19:57.163Z,18.50
2023-04-23T15:22:01.065Z,18.60
2023-04-23T15:24:04.954Z,18.60
2023-04-23T15:26:08.525Z,18.60
2023-04-23T15:28:12.641Z,18.50
2023-04-23T15:30:17.398Z,18.50
2023-04-23T15:32:21.932Z,18.50
2023-04-23T15:34:25.434Z,18.50
2023-04-23T15:36:31.796Z,18.40
2023-04-23T15:38:38.035Z,18.40
2023-04-23T15:40:42.900Z,18.30
2023-04-23T15:42:49.353Z,18.20
2023-04-23T15:44:56.041Z,18.20
2023-04-23T15:47:01.398Z,18.10
2023-04-23T15:49:05.689Z,18.10
2023-04-23T15:51:10.242Z,18.00
2023-04-23T15:53:13.796Z,18.00
2023-04-23T15:55:20.277Z,17.90
2023-04-23T15:57:24.832Z,17.90
2023-04-23T15:59:28.237Z,17.90
2023-04-23T16:01:33.552Z,17.90
2023-04-23T16:03:41.434Z,17.90
2023-04-23T16:05:48.072Z,17.80
2023-04-23T16:07:52.663Z,17.80
2023-04-23T16:09:56.925Z,17.80
2023-04-23T16:12:02.627Z,17.80
2023-04-23T16:14:09.183Z,17.70
2023-04-23T16:16:13.881Z,17.70
2023-04-23T16:18:18.568Z,17.60
2023-04-23T16:20:22.009Z,17.60
2023-04-23T16:22:27.346Z,17.50
2023-04-23T16:24:32.711Z,17.30
2023-04-23T16:26:36.695Z,17.30
2023-04-23T16:28:42.406Z,17.10
2023-04-23T16:30:46.784Z,17.10
2023-04-23T16:32:50.987Z,17.00
2023-04-23T16:34:56.157Z,17.00
2023-04-23T16:37:00.696Z,17.10
2023-04-23T16:39:04.672Z,17.10
2023-04-23T16:41:08.059Z,17.00
2023-04-23T16:43:43.646Z,17.10
2023-04-23T16:45:47.475Z,17.10
2023-04-23T16:47:51.327Z,17.00
2023-04-23T16:49:55.134Z,17.00
2023-04-23T16:52:06.549Z,17.10
2023-04-23T16:54:12.936Z,17.00
2023-04-23T16:56:20.410Z,17.00
2023-04-23T16:58:37.664Z,17.00
2023-04-23T17:00:42.693Z,17.00
2023-04-23T17:02:55.685Z,16.90
2023-04-23T17:04:59.665Z,16.90
2023-04-23T17:07:03.877Z,16.80
2023-04-23T17:09:10.598Z,16.80
2023-04-23T17:11:14.219Z,16.70
2023-04-23T17:13:27.546Z,16.50
2023-04-23T17:15:32.297Z,16.50
2023-04-23T17:17:36.099Z,16.50
2023-04-23T17:19:39.595Z,16.40
2023-04-23T17:21:44.619Z,16.40
2023-04-23T17:23:48.627Z,16.40
2023-04-23T17:25:51.895Z,16.30
2023-04-23T17:27:55.480Z,16.30
2023-04-23T17:29:58.897Z,16.30
2023-04-23T17:32:02.359Z,16.20
2023-04-23T17:34:07.455Z,16.20
2023-04-23T17:36:11.434Z,16.10
2023-04-23T17:38:16.476Z,16.10
2023-04-23T17:40:20.737Z,16.00
2023-04-23T17:42:24.693Z,16.10
2023-04-23T17:44:29.040Z,16.00
2023-04-23T17:46:33.572Z,16.00
2023-04-23T17:48:37.151Z,15.90
2023-04-23T17:50:40.833Z,15.80
2023-04-23T17:52:45.035Z,15.50
2023-04-23T17:54:49.455Z,15.20
2023-04-23T17:56:53.362Z,14.90
2023-04-23T17:58:56.663Z,14.50
2023-04-23T18:01:00.430Z,14.10
2023-04-23T18:03:04.097Z,13.60
2023-04-23T18:05:14.650Z,13.40
2023-04-23T18:07:19.069Z,13.20
2023-04-23T18:09:24.080Z,13.00
2023-04-23T18:11:32.504Z,12.70
2023-04-23T18:15:51.281Z,12.40
2023-04-23T18:17:56.273Z,12.10
2023-04-23T18:20:15.857Z,12.00
2023-04-23T18:22:23.666Z,12.00
2023-04-23T18:24:29.215Z,11.90
2023-04-23T18:26:37.425Z,11.80
2023-04-23T18:28:50.078Z,11.90
2023-04-23T18:30:56.612Z,11.80
2023-04-23T18:33:03.879Z,11.80
2023-04-23T18:35:14.854Z,11.80
2023-04-23T18:39:46.623Z,11.70
2023-04-23T18:41:51.917Z,11.80
2023-04-23T18:43:56.394Z,11.80
2023-04-23T18:46:01.833Z,11.80
2023-04-23T18:48:08.504Z,11.80
2023-04-23T18:50:19.200Z,11.80
2023-04-23T18:52:23.539Z,11.70
2023-04-23T18:54:29.099Z,11.80
2023-04-23T18:56:51.043Z,11.70
2023-04-23T18:59:01.064Z,11.70
2023-04-23T19:01:06.549Z,11.80
2023-04-23T19:03:25.448Z,11.70
2023-04-23T19:05:18.370Z,11.80
2023-04-23T19:07:23.582Z,11.80
2023-04-23T19:09:29.296Z,11.70
2023-04-23T19:11:35.347Z,11.70
2023-04-23T19:13:39.720Z,11.70
2023-04-23T19:15:45.909Z,11.70
2023-04-23T19:17:50.488Z,11.70
2023-04-23T19:19:55.408Z,11.70
2023-04-23T19:22:02.020Z,11.70
2023-04-23T19:24:07.113Z,11.80
2023-04-23T19:26:12.225Z,11.70
2023-04-23T19:28:15.422Z,11.70
2023-04-23T19:30:19.417Z,11.80
2023-04-23T19:32:25.356Z,11.80
2023-04-23T19:34:47.437Z,11.80
2023-04-23T19:36:51.100Z,11.80
2023-04-23T19:38:53.832Z,11.80
2023-04-23T19:40:57.218Z,11.80
2023-04-23T19:43:01.121Z,11.80
2023-04-23T19:45:05.572Z,11.80
2023-04-23T19:47:10.006Z,11.80
2023-04-23T19:49:13.909Z,11.80
2023-04-23T19:51:19.286Z,11.90
2023-04-23T19:53:23.278Z,11.80
2023-04-23T19:55:26.674Z,11.80
2023-04-23T19:57:29.300Z,11.80
2023-04-23T19:59:32.071Z,11.80
2023-04-23T20:01:34.866Z,11.90
2023-04-23T20:03:38.748Z,11.90
2023-04-23T20:05:43.882Z,12.00
2023-04-23T20:07:47.399Z,11.90
2023-04-23T20:09:50.899Z,12.00
2023-04-23T20:11:53.386Z,11.90
2023-04-23T20:13:55.931Z,12.00
2023-04-23T20:15:58.689Z,12.00
2023-04-23T20:18:01.296Z,12.00
2023-04-23T20:20:05.949Z,12.10
2023-04-23T20:22:08.688Z,12.10
2023-04-23T20:24:11.780Z,12.10
2023-04-23T20:26:14.317Z,12.10
2023-04-23T20:28:16.840Z,12.10
2023-04-23T20:30:19.492Z,12.10
2023-04-23T20:32:22.100Z,12.10
2023-04-23T20:34:24.650Z,12.20
2023-04-23T20:36:29.840Z,12.20
2023-04-23T20:38:32.716Z,12.30
2023-04-23T20:40:35.365Z,12.30
2023-04-23T20:42:38.787Z,12.30
2023-04-23T20:44:44.874Z,12.40
2023-04-23T20:46:48.931Z,12.40
2023-04-23T20:48:53.392Z,12.40
2023-04-23T20:50:56.097Z,12.50
2023-04-23T20:52:58.687Z,12.50
2023-04-23T20:55:01.360Z,12.60
2023-04-23T20:57:04.103Z,12.70
2023-04-23T20:59:06.820Z,12.70
2023-04-23T21:01:10.957Z,12.80
2023-04-23T21:03:13.742Z,12.70
2023-04-23T21:05:16.406Z,12.70
2023-04-23T21:07:19.295Z,12.70
2023-04-23T21:09:22.099Z,12.60
2023-04-23T21:11:25.597Z,12.60
2023-04-23T21:13:28.595Z,12.70
2023-04-23T21:15:32.876Z,12.70
2023-04-23T21:17:35.374Z,12.70
2023-04-23T21:19:37.827Z,12.70
2023-04-23T21:21:40.365Z,12.70
2023-04-23T21:23:43.079Z,12.80
2023-04-23T21:25:45.794Z,12.80
2023-04-23T21:27:48.736Z,12.70
2023-04-23T21:29:51.903Z,12.70
2023-04-23T21:31:54.487Z,12.70
2023-04-23T21:33:57.118Z,12.70
2023-04-23T21:35:59.975Z,12.70
2023-04-23T21:38:02.475Z,12.70
2023-04-23T21:40:06.562Z,12.70
2023-04-23T21:42:09.087Z,12.70
2023-04-23T21:44:11.580Z,12.70
2023-04-23T21:48:31.366Z,12.60
2023-04-23T21:50:33.849Z,12.50
2023-04-23T21:52:37.207Z,12.50
2023-04-23T21:54:39.720Z,12.50
2023-04-23T21:56:42.194Z,12.50
2023-04-23T21:58:44.669Z,12.50
2023-04-23T22:00:48.404Z,12.40
2023-04-23T22:02:53.011Z,12.50
2023-04-23T22:04:55.960Z,12.50
2023-04-23T22:07:00.705Z,12.50
2023-04-23T22:09:03.216Z,12.50
2023-04-23T22:11:06.197Z,12.60
2023-04-23T22:13:08.665Z,12.60
2023-04-23T22:15:12.919Z,12.70
2023-04-23T22:17:17.301Z,12.60
2023-04-23T22:19:19.999Z,12.70
2023-04-23T22:21:22.498Z,12.70
2023-04-23T22:23:24.968Z,12.70
2023-04-23T22:25:27.546Z,12.70
2023-04-23T22:27:30.089Z,12.60
2023-04-23T22:29:32.766Z,12.50
2023-04-23T22:31:36.228Z,12.60
2023-04-23T22:33:39.487Z,12.50
2023-04-23T22:35:42.416Z,12.40
2023-04-23T22:37:45.400Z,12.40
2023-04-23T22:39:48.459Z,12.40
2023-04-23T22:41:51.862Z,12.40
2023-04-23T22:43:54.644Z,12.30
2023-04-23T22:45:57.289Z,12.30
2023-04-23T22:48:00.130Z,12.20
2023-04-23T22:50:04.036Z,12.20
2023-04-23T22:52:08.124Z,12.20
2023-04-23T22:54:10.626Z,12.10
2023-04-23T22:56:13.259Z,12.10
2023-04-23T22:58:15.794Z,12.10
2023-04-23T23:00:18.350Z,12.10
2023-04-23T23:02:20.958Z,12.10
2023-04-23T23:04:23.572Z,12.10
2023-04-23T23:06:26.418Z,12.10
2023-04-23T23:08:28.922Z,12.10
2023-04-23T23:10:31.397Z,12.00
2023-04-23T23:12:33.880Z,12.00
2023-04-23T23:14:37.046Z,12.10
2023-04-23T23:16:39.957Z,12.00
2023-04-23T23:18:42.443Z,12.00
2023-04-23T23:20:44.940Z,12.00
2023-04-23T23:22:47.394Z,12.00
2023-04-23T23:24:49.885Z,12.00
2023-04-23T23:26:52.376Z,12.00
2023-04-23T23:28:55.051Z,12.00
2023-04-23T23:30:57.562Z,12.00
2023-04-23T23:33:00.320Z,12.00
2023-04-23T23:35:03.258Z,12.00
2023-04-23T23:37:05.740Z,12.00
2023-04-23T23:39:08.508Z,12.00
2023-04-23T23:43:25.761Z,11.90
2023-04-23T23:45:28.315Z,11.90
2023-04-23T23:47:30.934Z,11.80
2023-04-23T23:49:33.513Z,11.80
2023-04-23T23:51:36.012Z,11.80
2023-04-23T23:53:38.607Z,11.80
2023-04-23T23:55:41.096Z,11.80
2023-04-23T23:57:43.581Z,11.70
2023-04-23T23:59:46.479Z,11.70
